createdAt,value
2023-05-02T00:00:45.446Z,336.40
2023-05-02T00:03:14.070Z,335.27
2023-05-02T00:05:42.223Z,333.27
2023-05-02T00:08:10.659Z,332.13
2023-05-02T00:10:38.670Z,332.33
2023-05-02T00:13:06.832Z,333.67
2023-05-02T00:15:34.815Z,337.00
2023-05-02T00:18:04.252Z,338.53
2023-05-02T00:20:32.299Z,336.53
2023-05-02T00:23:00.501Z,335.37
2023-05-02T00:25:28.732Z,337.83
2023-05-02T00:27:57.015Z,334.30
2023-05-02T00:30:25.077Z,335.73
2023-05-02T00:32:54.291Z,338.80
2023-05-02T00:35:23.742Z,330.53
2023-05-02T00:37:51.788Z,333.63
2023-05-02T00:40:20.309Z,331.67
2023-05-02T00:42:48.333Z,332.77
2023-05-02T00:45:16.716Z,331.27
2023-05-02T00:47:45.017Z,329.90
2023-05-02T00:50:13.139Z,330.97
2023-05-02T00:52:43.118Z,329.20
2023-05-02T00:55:11.377Z,327.50
2023-05-02T00:57:39.540Z,329.47
2023-05-02T01:00:10.697Z,329.37
2023-05-02T01:02:49.487Z,328.10
2023-05-02T01:05:22.198Z,329.20
2023-05-02T01:08:10.138Z,327.63
2023-05-02T01:10:54.496Z,330.60
2023-05-02T01:13:23.983Z,327.93
2023-05-02T01:15:54.372Z,327.93
2023-05-02T01:18:24.791Z,327.63
2023-05-02T01:20:58.511Z,325.87
2023-05-02T01:23:36.584Z,323.67
2023-05-02T01:26:16.099Z,325.13
2023-05-02T01:29:00.009Z,322.00
2023-05-02T01:31:29.985Z,320.43
2023-05-02T01:33:59.941Z,324.97
2023-05-02T01:36:31.293Z,324.13
2023-05-02T01:39:01.386Z,326.50
2023-05-02T01:41:35.577Z,323.03
2023-05-02T01:44:06.928Z,321.40
2023-05-02T01:46:41.111Z,323.00
2023-05-02T01:49:10.011Z,321.80
2023-05-02T01:51:44.282Z,318.17
2023-05-02T01:54:14.906Z,320.67
2023-05-02T01:59:41.586Z,321.87
2023-05-02T02:02:11.268Z,324.57
2023-05-02T02:04:41.047Z,324.10
2023-05-02T02:07:12.344Z,317.93
2023-05-02T02:09:40.783Z,316.77
2023-05-02T02:12:13.461Z,318.83
2023-05-02T02:14:49.367Z,320.03
2023-05-02T02:17:33.442Z,321.97
2023-05-02T02:20:04.379Z,325.77
2023-05-02T02:22:38.346Z,316.50
2023-05-02T02:25:09.792Z,317.77
2023-05-02T02:27:38.710Z,314.67
2023-05-02T02:30:09.509Z,319.47
2023-05-02T02:32:37.859Z,314.47
2023-05-02T02:35:07.379Z,317.53
2023-05-02T02:37:40.420Z,316.80
2023-05-02T02:40:23.050Z,314.67
2023-05-02T02:42:57.201Z,314.63
2023-05-02T02:45:34.972Z,319.53
2023-05-02T02:48:12.164Z,314.73
2023-05-02T02:50:49.281Z,312.73
2023-05-02T02:53:21.798Z,312.93
2023-05-02T02:55:57.382Z,315.00
2023-05-02T02:58:37.958Z,311.30
2023-05-02T03:01:12.764Z,318.67
2023-05-02T03:03:41.782Z,312.67
2023-05-02T03:06:10.049Z,315.03
2023-05-02T03:08:41.603Z,311.37
2023-05-02T03:11:09.760Z,314.57
2023-05-02T03:13:38.076Z,312.73
2023-05-02T03:16:36.594Z,311.50
2023-05-02T03:19:05.146Z,312.47
2023-05-02T03:21:34.471Z,312.90
2023-05-02T03:24:03.858Z,311.77
2023-05-02T03:26:31.976Z,312.00
2023-05-02T03:28:59.946Z,314.30
2023-05-02T03:31:27.998Z,308.47
2023-05-02T03:33:57.795Z,309.60
2023-05-02T03:36:25.872Z,310.57
2023-05-02T03:38:54.048Z,309.73
2023-05-02T03:41:22.204Z,309.43
2023-05-02T03:43:50.209Z,310.47
2023-05-02T03:46:18.411Z,309.07
2023-05-02T03:48:46.631Z,311.63
2023-05-02T03:51:16.043Z,312.57
2023-05-02T03:53:44.386Z,310.43
2023-05-02T03:56:12.392Z,314.23
2023-05-02T03:58:40.567Z,310.30
2023-05-02T04:01:15.581Z,313.87
2023-05-02T04:03:43.920Z,309.73
2023-05-02T04:06:13.098Z,312.73
2023-05-02T04:08:43.448Z,313.57
2023-05-02T04:11:11.521Z,312.60
2023-05-02T04:13:39.497Z,309.83
2023-05-02T04:16:07.790Z,311.27
2023-05-02T04:18:35.808Z,309.60
2023-05-02T04:21:03.887Z,310.57
2023-05-02T04:23:31.935Z,311.07
2023-05-02T04:26:01.270Z,306.77
2023-05-02T04:28:29.690Z,306.60
2023-05-02T04:30:58.552Z,310.77
2023-05-02T04:33:26.686Z,311.63
2023-05-02T04:35:54.706Z,308.80
2023-05-02T04:38:22.776Z,312.77
2023-05-02T04:40:52.490Z,311.23
2023-05-02T04:43:24.257Z,308.63
2023-05-02T04:45:52.928Z,310.93
2023-05-02T04:48:21.767Z,312.23
2023-05-02T04:50:50.585Z,309.57
2023-05-02T04:53:20.635Z,314.97
2023-05-02T04:55:48.710Z,314.83
2023-05-02T04:58:16.950Z,315.40
2023-05-02T05:00:46.550Z,318.80
2023-05-02T05:03:14.655Z,315.50
2023-05-02T05:05:42.889Z,314.90
2023-05-02T05:08:11.446Z,316.17
2023-05-02T05:10:40.432Z,314.47
2023-05-02T05:13:08.483Z,312.67
2023-05-02T05:15:36.910Z,312.60
2023-05-02T05:18:06.989Z,310.70
2023-05-02T05:20:35.051Z,315.40
2023-05-02T05:23:03.120Z,310.33
2023-05-02T05:25:31.128Z,310.60
2023-05-02T05:28:00.546Z,306.27
2023-05-02T05:30:30.738Z,303.03
2023-05-02T05:32:59.207Z,308.50
2023-05-02T05:35:28.615Z,313.97
2023-05-02T05:37:56.865Z,306.30
2023-05-02T05:40:24.922Z,304.03
2023-05-02T05:42:53.129Z,304.83
2023-05-02T05:45:21.488Z,301.70
2023-05-02T05:47:49.946Z,304.63
2023-05-02T05:50:18.214Z,304.67
2023-05-02T05:52:47.651Z,303.23
2023-05-02T05:55:16.308Z,300.13
2023-05-02T05:57:44.340Z,304.07
2023-05-02T06:00:13.607Z,301.80
2023-05-02T06:02:41.831Z,306.13
2023-05-02T06:05:10.735Z,304.40
2023-05-02T06:07:39.046Z,302.43
2023-05-02T06:10:09.939Z,305.87
2023-05-02T06:12:38.302Z,303.33
2023-05-02T06:15:07.159Z,307.23
2023-05-02T06:17:35.340Z,304.90
2023-05-02T06:20:05.087Z,304.40
2023-05-02T06:22:33.239Z,310.20
2023-05-02T06:25:01.322Z,311.77
2023-05-02T06:27:33.467Z,301.57
2023-05-02T06:30:02.128Z,308.07
2023-05-02T06:32:32.325Z,304.13
2023-05-02T06:35:00.543Z,310.17
2023-05-02T06:37:28.734Z,311.13
2023-05-02T06:39:56.739Z,323.03
2023-05-02T06:42:25.089Z,316.77
2023-05-02T06:44:54.590Z,307.80
2023-05-02T06:47:24.291Z,313.97
2023-05-02T06:49:52.934Z,313.93
2023-05-02T06:52:21.092Z,319.47
2023-05-02T06:54:49.122Z,314.47
2023-05-02T06:57:17.358Z,316.97
2023-05-02T06:59:45.479Z,326.40
2023-05-02T07:02:14.901Z,319.13
2023-05-02T07:04:43.477Z,321.73
2023-05-02T07:07:11.626Z,317.17
2023-05-02T07:09:39.688Z,311.83
2023-05-02T07:12:08.123Z,312.47
2023-05-02T07:14:36.698Z,306.57
2023-05-02T07:17:04.781Z,304.47
2023-05-02T07:19:34.332Z,309.40
2023-05-02T07:22:02.405Z,317.17
2023-05-02T07:24:30.810Z,245.33
2023-05-02T07:26:59.014Z,253.77
2023-05-02T07:29:27.051Z,262.10
2023-05-02T07:31:55.134Z,264.10
2023-05-02T07:34:23.416Z,249.73
2023-05-02T07:36:52.778Z,233.80
2023-05-02T07:39:20.918Z,253.73
2023-05-02T07:41:49.095Z,226.13
2023-05-02T07:44:17.129Z,184.10
2023-05-02T07:46:45.256Z,243.63
2023-05-02T07:49:14.161Z,205.13
2023-05-02T07:51:42.637Z,192.32
2023-05-02T07:54:18.456Z,209.10
2023-05-02T07:56:47.352Z,228.68
2023-05-02T07:59:15.771Z,242.57
2023-05-02T08:01:44.308Z,246.13
2023-05-02T08:04:13.399Z,228.07
2023-05-02T08:06:42.441Z,225.65
2023-05-02T08:09:10.691Z,212.02
2023-05-02T08:11:40.083Z,230.50
2023-05-02T08:14:08.184Z,232.48
2023-05-02T08:16:37.140Z,249.93
2023-05-02T08:19:05.231Z,255.02
2023-05-02T08:21:33.733Z,255.18
2023-05-02T08:24:02.842Z,241.32
2023-05-02T08:26:31.089Z,284.23
2023-05-02T08:29:01.178Z,288.65
2023-05-02T08:31:29.197Z,297.85
2023-05-02T08:33:57.323Z,314.88
2023-05-02T08:36:27.897Z,310.13
2023-05-02T08:38:56.106Z,316.83
2023-05-02T08:41:24.869Z,289.70
2023-05-02T08:43:54.002Z,297.08
2023-05-02T08:46:24.845Z,307.85
2023-05-02T08:48:53.668Z,302.70
2023-05-02T08:51:23.670Z,284.58
2023-05-02T08:53:53.171Z,305.00
2023-05-02T08:56:22.017Z,301.65
2023-05-02T08:58:51.024Z,292.98
2023-05-02T09:01:21.864Z,294.70
2023-05-02T09:03:52.517Z,303.05
2023-05-02T09:06:22.818Z,292.48
2023-05-02T09:08:52.507Z,279.23
2023-05-02T09:11:21.331Z,282.13
2023-05-02T09:13:51.013Z,280.67
2023-05-02T09:16:22.716Z,287.15
2023-05-02T09:18:55.544Z,251.90
2023-05-02T09:21:25.345Z,299.48
2023-05-02T09:23:54.989Z,297.05
2023-05-02T09:26:24.862Z,324.25
2023-05-02T09:28:54.078Z,282.23
2023-05-02T09:33:56.163Z,272.05
2023-05-02T09:36:25.186Z,287.25
2023-05-02T09:38:53.249Z,295.45
2023-05-02T09:41:22.189Z,298.95
2023-05-02T09:43:57.650Z,310.30
2023-05-02T09:46:25.947Z,321.77
2023-05-02T09:48:57.016Z,298.38
2023-05-02T09:51:26.688Z,317.10
2023-05-02T09:53:54.864Z,256.77
2023-05-02T09:56:23.976Z,265.60
2023-05-02T09:58:52.895Z,300.50
2023-05-02T10:01:21.672Z,339.40
2023-05-02T10:03:50.364Z,351.17
2023-05-02T10:06:21.685Z,370.58
2023-05-02T10:08:50.664Z,376.17
2023-05-02T10:11:18.734Z,379.13
2023-05-02T10:13:47.751Z,391.63
2023-05-02T10:16:23.339Z,395.95
2023-05-02T10:19:03.150Z,391.63
2023-05-02T10:21:33.476Z,382.70
2023-05-02T10:24:03.560Z,367.88
2023-05-02T10:26:31.817Z,374.48
2023-05-02T10:29:00.787Z,375.48
2023-05-02T10:31:34.921Z,374.60
2023-05-02T10:34:05.808Z,382.23
2023-05-02T10:36:35.444Z,378.65
2023-05-02T10:39:04.020Z,376.88
2023-05-02T10:41:34.700Z,358.92
2023-05-02T10:44:07.550Z,340.38
2023-05-02T10:46:36.742Z,343.73
2023-05-02T10:49:08.498Z,340.95
2023-05-02T10:51:39.362Z,312.73
2023-05-02T10:54:26.464Z,324.05
2023-05-02T10:57:08.573Z,320.13
2023-05-02T10:59:40.870Z,312.10
2023-05-02T11:02:49.944Z,316.60
2023-05-02T11:05:18.461Z,310.15
2023-05-02T11:07:47.874Z,305.70
2023-05-02T11:10:29.243Z,294.48
2023-05-02T11:13:05.975Z,287.23
2023-05-02T11:16:00.564Z,256.92
2023-05-02T11:18:28.607Z,241.60
2023-05-02T11:21:27.865Z,237.35
2023-05-02T11:24:29.190Z,245.32
2023-05-02T11:27:43.866Z,225.05
2023-05-02T11:30:13.758Z,264.80
2023-05-02T11:33:13.227Z,292.85
2023-05-02T11:35:44.022Z,297.35
2023-05-02T11:38:14.027Z,311.30
2023-05-02T11:40:42.746Z,319.60
2023-05-02T11:43:16.820Z,305.30
2023-05-02T11:45:45.005Z,311.98
2023-05-02T11:48:14.468Z,311.90
2023-05-02T11:50:49.632Z,294.52
2023-05-02T11:53:22.251Z,296.70
2023-05-02T11:55:52.341Z,329.25
2023-05-02T11:58:23.714Z,325.67
2023-05-02T12:00:52.744Z,313.17
2023-05-02T12:03:26.355Z,322.55
2023-05-02T12:05:54.937Z,305.88
2023-05-02T12:08:24.828Z,340.75
2023-05-02T12:10:54.387Z,321.38
2023-05-02T12:13:26.229Z,322.38
2023-05-02T12:15:56.186Z,321.85
2023-05-02T12:18:27.120Z,339.45
2023-05-02T12:20:57.181Z,312.27
2023-05-02T12:23:27.371Z,311.65
2023-05-02T12:25:55.646Z,296.33
2023-05-02T12:28:25.035Z,284.52
2023-05-02T12:30:53.382Z,272.40
2023-05-02T12:33:21.472Z,309.80
2023-05-02T12:35:49.669Z,269.38
2023-05-02T12:38:20.413Z,268.65
2023-05-02T12:40:50.489Z,263.45
2023-05-02T12:43:18.911Z,292.25
2023-05-02T12:45:49.670Z,291.13
2023-05-02T12:48:22.572Z,299.63
2023-05-02T12:50:51.225Z,269.60
2023-05-02T12:53:38.646Z,250.82
2023-05-02T12:56:07.817Z,293.88
2023-05-02T12:58:43.913Z,302.35
2023-05-02T13:01:14.251Z,304.77
2023-05-02T13:03:43.174Z,285.42
2023-05-02T13:06:11.524Z,283.60
2023-05-02T13:08:39.870Z,280.88
2023-05-02T13:11:07.982Z,276.92
2023-05-02T13:13:36.334Z,294.83
2023-05-02T13:16:05.070Z,267.60
2023-05-02T13:18:34.799Z,273.58
2023-05-02T13:21:03.072Z,292.73
2023-05-02T13:23:31.077Z,305.98
2023-05-02T13:25:59.285Z,298.98
2023-05-02T13:28:27.933Z,310.25
2023-05-02T13:30:56.075Z,299.52
2023-05-02T13:33:24.301Z,286.52
2023-05-02T13:35:53.970Z,263.15
2023-05-02T13:38:22.022Z,261.35
2023-05-02T13:40:50.772Z,242.95
2023-05-02T13:43:18.902Z,248.38
2023-05-02T13:45:48.823Z,277.15
2023-05-02T13:48:17.120Z,290.38
2023-05-02T13:50:45.167Z,273.58
2023-05-02T13:53:14.629Z,319.90
2023-05-02T13:55:42.876Z,315.75
2023-05-02T13:58:10.903Z,322.17
2023-05-02T14:00:38.976Z,319.75
2023-05-02T14:03:07.084Z,328.15
2023-05-02T14:05:36.598Z,324.42
2023-05-02T14:08:04.705Z,324.38
2023-05-02T14:10:38.056Z,292.83
2023-05-02T14:13:06.222Z,293.13
2023-05-02T14:15:34.394Z,277.25
2023-05-02T14:18:02.444Z,276.67
2023-05-02T14:20:30.557Z,279.35
2023-05-02T14:22:58.499Z,293.98
2023-05-02T14:25:26.612Z,287.45
2023-05-02T14:27:56.171Z,295.98
2023-05-02T14:30:24.218Z,302.38
2023-05-02T14:32:52.532Z,295.47
2023-05-02T14:35:20.712Z,286.45
2023-05-02T14:37:48.757Z,284.75
2023-05-02T14:40:16.922Z,280.75
2023-05-02T14:42:45.885Z,275.25
2023-05-02T14:45:15.457Z,269.58
2023-05-02T14:47:43.511Z,272.30
2023-05-02T14:50:12.167Z,273.17
2023-05-02T14:52:40.254Z,277.17
2023-05-02T14:55:08.942Z,314.33
2023-05-02T14:57:37.170Z,301.37
2023-05-02T15:00:08.157Z,296.47
2023-05-02T15:02:38.054Z,324.73
2023-05-02T15:05:12.045Z,284.33
2023-05-02T15:07:40.807Z,270.73
2023-05-02T15:10:10.340Z,281.93
2023-05-02T15:12:38.390Z,283.93
2023-05-02T15:15:09.089Z,285.13
2023-05-02T15:17:39.167Z,290.43
2023-05-02T15:20:08.598Z,281.17
2023-05-02T15:22:36.626Z,283.73
2023-05-02T15:25:05.405Z,284.67
2023-05-02T15:27:33.571Z,287.07
2023-05-02T15:30:03.333Z,290.00
2023-05-02T15:32:31.772Z,280.33
2023-05-02T15:35:01.359Z,317.67
2023-05-02T15:37:29.460Z,313.73
2023-05-02T15:39:57.522Z,302.80
2023-05-02T15:42:25.583Z,279.33
2023-05-02T15:44:54.072Z,276.50
2023-05-02T15:47:23.213Z,281.10
2023-05-02T15:49:53.913Z,285.30
2023-05-02T15:52:23.557Z,324.80
2023-05-02T15:54:51.848Z,319.48
2023-05-02T15:57:21.206Z,322.02
2023-05-02T15:59:49.503Z,326.92
2023-05-02T16:02:18.097Z,352.52
2023-05-02T16:04:46.550Z,359.65
2023-05-02T16:07:14.767Z,368.25
2023-05-02T16:09:44.317Z,362.42
2023-05-02T16:12:12.512Z,360.30
2023-05-02T16:14:40.554Z,336.58
2023-05-02T16:17:16.556Z,333.77
2023-05-02T16:19:44.537Z,360.38
2023-05-02T16:22:12.664Z,361.98
2023-05-02T16:24:41.220Z,362.42
2023-05-02T16:27:09.913Z,368.45
2023-05-02T16:29:38.044Z,371.23
2023-05-02T16:32:07.990Z,386.38
2023-05-02T16:34:37.718Z,402.95
2023-05-02T16:37:05.967Z,401.08
2023-05-02T16:39:34.868Z,417.58
2023-05-02T16:42:03.134Z,425.77
2023-05-02T16:44:31.364Z,445.38
2023-05-02T16:46:59.323Z,452.27
2023-05-02T16:49:27.330Z,449.90
2023-05-02T16:51:56.658Z,431.55
2023-05-02T16:54:24.816Z,400.98
2023-05-02T16:56:53.333Z,387.35
2023-05-02T16:59:21.523Z,371.67
2023-05-02T17:01:49.990Z,360.65
2023-05-02T17:04:18.371Z,351.10
2023-05-02T17:06:47.709Z,363.90
2023-05-02T17:09:18.549Z,365.88
2023-05-02T17:11:47.984Z,373.95
2023-05-02T17:14:16.123Z,380.48
2023-05-02T17:16:44.264Z,387.95
2023-05-02T17:19:12.631Z,381.30
2023-05-02T17:21:40.670Z,364.00
2023-05-02T17:24:08.764Z,367.92
2023-05-02T17:26:38.113Z,358.48
2023-05-02T17:29:06.464Z,354.73
2023-05-02T17:31:34.503Z,343.58
2023-05-02T17:34:02.632Z,336.43
2023-05-02T17:36:32.674Z,305.83
2023-05-02T17:39:00.772Z,327.77
2023-05-02T17:41:28.855Z,272.67
2023-05-02T17:43:58.172Z,282.33
2023-05-02T17:46:26.717Z,254.97
2023-05-02T17:48:54.933Z,242.73
2023-05-02T17:51:22.954Z,263.07
2023-05-02T17:53:52.141Z,273.40
2023-05-02T17:56:20.148Z,268.17
2023-05-02T17:58:48.167Z,272.97
2023-05-02T18:01:17.690Z,263.80
2023-05-02T18:03:47.495Z,269.03
2023-05-02T18:06:19.724Z,285.10
2023-05-02T18:08:48.003Z,297.63
2023-05-02T18:11:17.176Z,293.77
2023-05-02T18:13:45.837Z,303.03
2023-05-02T18:16:14.727Z,291.83
2023-05-02T18:18:44.171Z,261.83
2023-05-02T18:21:12.544Z,252.73
2023-05-02T18:23:41.025Z,245.70
2023-05-02T18:26:13.497Z,261.87
2023-05-02T18:28:44.124Z,264.90
2023-05-02T18:31:17.597Z,274.77
2023-05-02T18:33:47.694Z,281.43
2023-05-02T18:36:19.183Z,256.30
2023-05-02T18:38:47.566Z,266.40
2023-05-02T18:41:16.058Z,259.87
2023-05-02T18:43:44.021Z,266.33
2023-05-02T18:46:12.852Z,274.63
2023-05-02T18:48:40.863Z,275.20
2023-05-02T18:51:10.813Z,282.73
2023-05-02T18:53:38.771Z,291.50
2023-05-02T18:56:13.491Z,298.13
2023-05-02T18:58:42.002Z,369.20
2023-05-02T19:01:14.803Z,303.67
2023-05-02T19:03:43.463Z,301.73
2023-05-02T19:06:13.866Z,303.27
2023-05-02T19:08:41.995Z,287.23
2023-05-02T19:11:10.029Z,288.80
2023-05-02T19:13:40.013Z,291.43
2023-05-02T19:16:12.453Z,294.73
2023-05-02T19:18:41.265Z,292.90
2023-05-02T19:21:12.590Z,293.93
2023-05-02T19:23:41.837Z,295.00
2023-05-02T19:26:13.574Z,295.57
2023-05-02T19:28:42.043Z,297.90
2023-05-02T19:31:11.504Z,298.20
2023-05-02T19:33:40.308Z,299.20
2023-05-02T19:36:08.962Z,299.20
2023-05-02T19:38:38.266Z,304.10
2023-05-02T19:41:06.212Z,302.77
2023-05-02T19:43:36.022Z,300.20
2023-05-02T19:46:04.071Z,289.83
2023-05-02T19:48:32.038Z,293.37
2023-05-02T19:51:02.485Z,300.43
2023-05-02T19:53:30.860Z,286.10
2023-05-02T19:56:00.388Z,285.40
2023-05-02T19:58:28.790Z,280.27
2023-05-02T20:00:57.202Z,284.60
2023-05-02T20:03:25.463Z,303.17
2023-05-02T20:05:53.799Z,258.10
2023-05-02T20:08:23.823Z,265.33
2023-05-02T20:10:51.936Z,266.23
2023-05-02T20:13:21.285Z,261.77
2023-05-02T20:15:50.527Z,264.47
2023-05-02T20:18:18.749Z,263.83
2023-05-02T20:20:46.772Z,260.93
2023-05-02T20:23:15.047Z,260.43
2023-05-02T20:25:43.704Z,248.93
2023-05-02T20:28:11.742Z,254.53
2023-05-02T20:30:42.004Z,244.77
2023-05-02T20:33:15.622Z,238.93
2023-05-02T20:35:44.622Z,255.50
2023-05-02T20:38:12.755Z,220.37
2023-05-02T20:40:42.655Z,226.37
2023-05-02T20:43:11.845Z,203.23
2023-05-02T20:45:41.254Z,124.93
2023-05-02T20:48:09.410Z,175.83
2023-05-02T20:50:37.497Z,163.50
2023-05-02T20:53:05.525Z,86.13
2023-05-02T20:55:35.659Z,93.77
2023-05-02T20:58:03.654Z,87.67
2023-05-02T21:00:32.617Z,57.53
2023-05-02T21:03:02.061Z,28.53
2023-05-02T21:05:30.097Z,9.37
2023-05-02T21:07:58.078Z,1.67
2023-05-02T21:10:27.643Z,1.97
2023-05-02T21:12:55.616Z,2.67
2023-05-02T21:15:23.596Z,3.57
2023-05-02T21:17:52.431Z,1.93
2023-05-02T21:20:22.200Z,6.27
2023-05-02T21:22:50.229Z,2.57
2023-05-02T21:25:18.184Z,47.93
2023-05-02T21:27:46.337Z,2.80
2023-05-02T21:30:14.965Z,2.43
2023-05-02T21:32:43.549Z,3.30
2023-05-02T21:35:12.183Z,3.70
2023-05-02T21:37:41.500Z,3.33
2023-05-02T21:40:10.560Z,2.47
2023-05-02T21:42:38.747Z,4.43
2023-05-02T21:45:08.046Z,4.30
2023-05-02T21:47:36.065Z,1.63
2023-05-02T21:50:05.376Z,2.63
2023-05-02T21:52:33.445Z,24.27
2023-05-02T21:55:02.829Z,2.87
2023-05-02T21:57:30.790Z,1.83
2023-05-02T21:59:58.748Z,5.73
2023-05-02T22:02:27.620Z,3.17
2023-05-02T22:04:56.055Z,1.30
2023-05-02T22:07:24.064Z,4.80
2023-05-02T22:09:52.025Z,3.73
2023-05-02T22:12:23.631Z,2.40
2023-05-02T22:14:51.843Z,2.90
2023-05-02T22:17:22.946Z,1.80
2023-05-02T22:19:51.676Z,2.43
2023-05-02T22:22:19.611Z,3.07
2023-05-02T22:24:47.608Z,1.50
2023-05-02T22:27:15.552Z,1.50
2023-05-02T22:29:44.830Z,2.10
2023-05-02T22:32:14.783Z,7.43
2023-05-02T22:34:42.843Z,5.23
2023-05-02T22:37:10.975Z,5.10
2023-05-02T22:39:38.997Z,3.43
2023-05-02T22:42:06.986Z,1.73
2023-05-02T22:44:46.785Z,2.80
2023-05-02T22:47:23.009Z,4.10
2023-05-02T22:49:52.160Z,3.80
2023-05-02T22:52:20.692Z,2.13
2023-05-02T22:54:48.873Z,3.60
2023-05-02T22:57:16.824Z,1.43
2023-05-02T22:59:44.839Z,2.37
2023-05-02T23:02:12.867Z,2.63
2023-05-02T23:04:42.222Z,2.10
2023-05-02T23:07:10.149Z,3.47
2023-05-02T23:09:38.275Z,2.03
2023-05-02T23:12:06.698Z,3.83
2023-05-02T23:14:34.673Z,4.37
2023-05-02T23:17:03.569Z,2.73
2023-05-02T23:19:31.573Z,4.20
2023-05-02T23:22:00.949Z,4.97
2023-05-02T23:24:29.247Z,2.73
2023-05-02T23:26:57.260Z,1.53
2023-05-02T23:29:25.992Z,4.17
2023-05-02T23:31:55.496Z,2.30
2023-05-02T23:34:23.807Z,2.50
2023-05-02T23:36:53.250Z,2.00
2023-05-02T23:39:22.667Z,2.90
2023-05-02T23:41:50.628Z,4.43
2023-05-02T23:44:18.578Z,3.17
2023-05-02T23:46:46.683Z,3.60
2023-05-02T23:49:14.671Z,6.47
2023-05-02T23:51:42.635Z,2.83
2023-05-02T23:54:10.858Z,2.47
2023-05-02T23:56:40.344Z,4.23
2023-05-02T23:59:08.301Z,3.07
